createdAt,value
2022-10-18T00:02:22.310Z,15.34
2022-10-18T00:04:50.982Z,15.29
2022-10-18T00:07:19.797Z,15.30
2022-10-18T00:09:49.924Z,15.29
2022-10-18T00:12:18.299Z,15.31
2022-10-18T00:14:50.053Z,15.33
2022-10-18T00:17:18.869Z,15.29
2022-10-18T00:19:48.205Z,15.19
2022-10-18T00:22:17.586Z,15.09
2022-10-18T00:24:46.663Z,15.02
2022-10-18T00:27:17.189Z,14.99
2022-10-18T00:29:46.335Z,15.04
2022-10-18T00:32:15.219Z,15.06
2022-10-18T00:34:43.545Z,15.09
2022-10-18T00:37:12.719Z,15.10
2022-10-18T00:39:41.348Z,15.03
2022-10-18T00:42:13.221Z,15.04
2022-10-18T00:45:20.866Z,15.03
2022-10-18T00:47:53.778Z,14.99
2022-10-18T00:50:24.438Z,14.92
2022-10-18T00:52:58.285Z,14.90
2022-10-18T00:55:28.219Z,14.97
2022-10-18T00:57:57.465Z,14.96
2022-10-18T01:00:28.193Z,14.96
2022-10-18T01:02:57.175Z,14.93
2022-10-18T01:05:27.759Z,14.91
2022-10-18T01:08:32.913Z,14.82
2022-10-18T01:11:27.463Z,14.64
2022-10-18T01:14:07.324Z,14.59
2022-10-18T01:16:46.921Z,14.65
2022-10-18T01:19:45.010Z,14.70
2022-10-18T01:22:22.978Z,14.62
2022-10-18T01:27:46.064Z,14.58
2022-10-18T01:30:44.536Z,14.57
2022-10-18T01:33:30.225Z,14.62
2022-10-18T01:36:05.552Z,14.62
2022-10-18T01:38:35.896Z,14.55
2022-10-18T01:41:06.241Z,14.50
2022-10-18T01:43:36.250Z,14.53
2022-10-18T01:46:08.155Z,14.55
2022-10-18T01:48:38.851Z,14.54
2022-10-18T01:51:07.922Z,14.48
2022-10-18T01:53:36.625Z,14.47
2022-10-18T01:56:30.615Z,14.50
2022-10-18T01:59:22.263Z,14.58
2022-10-18T02:01:59.221Z,14.56
2022-10-18T02:04:35.019Z,14.53
2022-10-18T02:07:10.691Z,14.48
2022-10-18T02:09:46.586Z,14.19
2022-10-18T02:12:17.420Z,14.13
2022-10-18T02:14:47.493Z,14.14
2022-10-18T02:17:19.378Z,14.23
2022-10-18T02:19:53.056Z,14.26
2022-10-18T02:22:23.295Z,14.30
2022-10-18T02:24:54.878Z,14.29
2022-10-18T02:27:24.173Z,14.26
2022-10-18T02:29:53.149Z,14.29
2022-10-18T02:32:32.935Z,14.24
2022-10-18T02:35:07.078Z,14.02
2022-10-18T02:37:39.339Z,14.12
2022-10-18T02:40:10.117Z,14.14
2022-10-18T02:42:41.374Z,14.14
2022-10-18T02:45:10.611Z,14.16
2022-10-18T02:47:40.518Z,14.14
2022-10-18T02:50:10.514Z,14.09
2022-10-18T02:52:39.184Z,14.04
2022-10-18T02:55:10.050Z,13.95
2022-10-18T02:57:38.612Z,13.95
2022-10-18T03:00:09.092Z,13.96
2022-10-18T03:02:37.542Z,13.97
2022-10-18T03:05:08.586Z,13.94
2022-10-18T03:07:37.272Z,13.86
2022-10-18T03:10:06.332Z,13.65
2022-10-18T03:12:35.103Z,13.80
2022-10-18T03:15:03.707Z,13.85
2022-10-18T03:17:32.452Z,13.88
2022-10-18T03:20:01.076Z,13.92
2022-10-18T03:22:31.292Z,13.92
2022-10-18T03:24:59.691Z,13.91
2022-10-18T03:27:28.530Z,13.91
2022-10-18T03:29:57.050Z,13.88
2022-10-18T03:32:25.441Z,13.89
2022-10-18T03:34:54.576Z,13.85
2022-10-18T03:37:23.082Z,13.72
2022-10-18T03:39:53.611Z,13.67
2022-10-18T03:42:22.047Z,13.67
2022-10-18T03:44:50.497Z,13.64
2022-10-18T03:47:19.283Z,13.65
2022-10-18T03:49:48.591Z,13.67
2022-10-18T03:52:19.119Z,13.64
2022-10-18T03:54:47.872Z,13.50
2022-10-18T03:57:17.820Z,13.50
2022-10-18T03:59:49.145Z,13.53
2022-10-18T04:02:17.538Z,13.44
2022-10-18T04:04:46.946Z,13.47
2022-10-18T04:07:15.545Z,13.50
2022-10-18T04:09:43.917Z,13.48
2022-10-18T04:12:13.040Z,13.47
2022-10-18T04:14:42.736Z,13.52
2022-10-18T04:17:11.853Z,13.51
2022-10-18T04:19:40.995Z,13.50
2022-10-18T04:22:10.461Z,13.49
2022-10-18T04:24:39.388Z,13.45
2022-10-18T04:27:08.730Z,13.44
2022-10-18T04:29:37.436Z,13.46
2022-10-18T04:32:07.559Z,13.41
2022-10-18T04:34:37.057Z,13.35
2022-10-18T04:37:05.545Z,13.36
2022-10-18T04:39:34.282Z,13.37
2022-10-18T04:42:03.223Z,13.37
2022-10-18T04:44:32.370Z,13.33
2022-10-18T04:47:00.740Z,13.33
2022-10-18T04:49:30.827Z,13.34
2022-10-18T04:51:59.591Z,13.29
2022-10-18T04:54:28.713Z,13.23
2022-10-18T04:56:57.645Z,13.27
2022-10-18T04:59:26.050Z,13.24
2022-10-18T05:01:55.314Z,13.24
2022-10-18T05:04:23.819Z,13.19
2022-10-18T05:06:54.099Z,13.19
2022-10-18T05:09:24.677Z,13.12
2022-10-18T05:11:53.117Z,12.98
2022-10-18T05:14:22.289Z,12.99
2022-10-18T05:16:50.744Z,13.01
2022-10-18T05:19:19.970Z,13.05
2022-10-18T05:21:48.769Z,13.07
2022-10-18T05:24:18.612Z,13.09
2022-10-18T05:26:47.702Z,13.10
2022-10-18T05:29:16.196Z,13.13
2022-10-18T05:31:44.856Z,13.15
2022-10-18T05:34:13.771Z,13.17
2022-10-18T05:36:42.148Z,13.21
2022-10-18T05:39:11.160Z,13.22
2022-10-18T05:41:41.007Z,13.22
2022-10-18T05:44:10.939Z,13.19
2022-10-18T05:46:39.464Z,13.24
2022-10-18T05:49:07.959Z,13.26
2022-10-18T05:51:36.588Z,13.33
2022-10-18T05:54:05.651Z,13.34
2022-10-18T05:56:34.274Z,13.38
2022-10-18T05:59:05.141Z,13.39
2022-10-18T06:01:34.088Z,13.44
2022-10-18T06:04:03.135Z,13.41
2022-10-18T06:06:32.183Z,13.45
2022-10-18T06:09:03.728Z,13.47
2022-10-18T06:11:32.669Z,13.47
2022-10-18T06:14:02.034Z,13.44
2022-10-18T06:16:32.738Z,13.48
2022-10-18T06:19:01.731Z,13.47
2022-10-18T06:21:30.639Z,13.55
2022-10-18T06:24:00.051Z,13.55
2022-10-18T06:26:29.924Z,13.54
2022-10-18T06:28:58.309Z,13.60
2022-10-18T06:31:27.107Z,13.65
2022-10-18T06:33:58.798Z,13.67
2022-10-18T06:36:27.156Z,13.73
2022-10-18T06:38:57.171Z,13.78
2022-10-18T06:41:25.537Z,13.85
2022-10-18T06:43:57.658Z,13.96
2022-10-18T06:46:27.432Z,14.05
2022-10-18T06:48:56.322Z,14.16
2022-10-18T06:51:26.410Z,14.27
2022-10-18T06:54:06.212Z,14.36
2022-10-18T06:56:43.514Z,14.46
2022-10-18T06:59:12.281Z,14.48
2022-10-18T07:01:40.759Z,14.52
2022-10-18T07:04:09.220Z,14.54
2022-10-18T07:06:38.938Z,14.56
2022-10-18T07:09:07.307Z,14.60
2022-10-18T07:11:35.835Z,14.56
2022-10-18T07:14:05.914Z,14.49
2022-10-18T07:16:34.904Z,14.58
2022-10-18T07:19:03.296Z,14.59
2022-10-18T07:21:32.760Z,14.62
2022-10-18T07:24:02.476Z,14.65
2022-10-18T07:26:33.564Z,14.68
2022-10-18T07:29:05.570Z,14.70
2022-10-18T07:31:34.965Z,14.75
2022-10-18T07:34:05.141Z,14.77
2022-10-18T07:36:33.988Z,14.82
2022-10-18T07:39:05.383Z,14.89
2022-10-18T07:41:34.419Z,14.92
2022-10-18T07:44:03.348Z,14.96
2022-10-18T07:46:32.228Z,14.97
2022-10-18T07:49:01.299Z,15.02
2022-10-18T07:51:32.591Z,15.04
2022-10-18T07:54:01.235Z,15.07
2022-10-18T07:56:30.978Z,15.13
2022-10-18T07:59:00.187Z,15.17
2022-10-18T08:01:29.004Z,15.17
2022-10-18T08:03:57.379Z,15.21
2022-10-18T08:06:25.787Z,15.27
2022-10-18T08:08:54.541Z,15.32
2022-10-18T08:11:24.435Z,15.37
2022-10-18T08:13:55.746Z,15.47
2022-10-18T08:16:26.182Z,15.50
2022-10-18T08:18:54.958Z,15.53
2022-10-18T08:21:23.605Z,15.59
2022-10-18T08:23:53.733Z,15.69
2022-10-18T08:26:24.331Z,15.81
2022-10-18T08:29:09.950Z,15.88
2022-10-18T08:31:43.591Z,15.97
2022-10-18T08:34:14.851Z,16.06
2022-10-18T08:36:47.042Z,16.18
2022-10-18T08:39:15.395Z,16.28
2022-10-18T08:42:19.259Z,16.30
2022-10-18T08:44:51.426Z,16.30
2022-10-18T08:47:22.903Z,16.32
2022-10-18T08:49:55.566Z,16.32
2022-10-18T08:52:33.522Z,16.28
2022-10-18T08:55:10.330Z,16.40
2022-10-18T08:57:38.990Z,16.80
2022-10-18T09:00:16.752Z,17.30
2022-10-18T09:03:01.316Z,17.91
2022-10-18T09:05:37.942Z,17.89
2022-10-18T09:08:34.687Z,17.60
2022-10-18T09:11:16.127Z,17.40
2022-10-18T09:14:04.522Z,17.33
2022-10-18T09:16:43.725Z,17.23
2022-10-18T09:19:23.180Z,17.37
2022-10-18T09:21:53.822Z,17.97
2022-10-18T09:24:29.381Z,18.56
2022-10-18T09:27:05.018Z,18.90
2022-10-18T09:29:47.387Z,19.31
2022-10-18T09:32:29.850Z,19.71
2022-10-18T09:35:02.356Z,20.02
2022-10-18T09:37:34.049Z,20.29
2022-10-18T09:40:18.045Z,20.52
2022-10-18T09:42:56.831Z,20.86
2022-10-18T09:45:29.973Z,21.21
2022-10-18T09:48:07.236Z,21.02
2022-10-18T09:50:39.385Z,20.89
2022-10-18T09:53:18.692Z,20.72
2022-10-18T09:56:00.540Z,20.59
2022-10-18T09:58:39.479Z,20.38
2022-10-18T10:01:09.842Z,20.42
2022-10-18T10:03:40.315Z,20.43
2022-10-18T10:06:25.134Z,20.68
2022-10-18T10:09:01.938Z,21.04
2022-10-18T10:11:35.955Z,21.24
2022-10-18T10:16:52.468Z,21.95
2022-10-18T10:19:27.659Z,22.31
2022-10-18T10:22:00.085Z,22.53
2022-10-18T10:24:44.687Z,22.75
2022-10-18T10:27:20.051Z,22.96
2022-10-18T10:30:04.195Z,23.19
2022-10-18T10:32:47.247Z,23.52
2022-10-18T10:38:26.180Z,24.04
2022-10-18T10:40:55.976Z,24.11
2022-10-18T10:43:43.040Z,24.21
2022-10-18T10:46:14.479Z,24.40
2022-10-18T10:48:49.557Z,24.47
2022-10-18T10:51:31.669Z,24.61
2022-10-18T10:56:59.521Z,25.19
2022-10-18T10:59:31.974Z,25.36
2022-10-18T11:02:20.733Z,25.51
2022-10-18T11:04:51.274Z,25.69
2022-10-18T11:07:27.106Z,25.71
2022-10-18T11:10:01.355Z,25.90
2022-10-18T11:12:35.756Z,26.11
2022-10-18T11:15:17.992Z,26.26
2022-10-18T11:20:33.796Z,26.49
2022-10-18T11:23:08.180Z,26.65
2022-10-18T11:26:01.101Z,26.81
2022-10-18T11:28:43.503Z,26.94
2022-10-18T11:31:19.559Z,27.11
2022-10-18T11:34:09.120Z,27.28
2022-10-18T11:36:56.271Z,27.44
2022-10-18T11:39:44.494Z,27.51
2022-10-18T11:42:22.895Z,27.65
2022-10-18T11:45:02.645Z,27.80
2022-10-18T11:47:42.314Z,27.89
2022-10-18T11:50:26.114Z,27.90
2022-10-18T11:53:05.439Z,28.05
2022-10-18T11:55:45.927Z,28.15
2022-10-18T11:58:33.153Z,28.11
2022-10-18T12:01:09.335Z,28.32
2022-10-18T12:03:54.930Z,28.53
2022-10-18T12:06:26.427Z,28.58
2022-10-18T12:08:59.540Z,28.60
2022-10-18T12:11:34.260Z,28.82
2022-10-18T12:14:05.664Z,28.97
2022-10-18T12:17:07.609Z,29.08
2022-10-18T12:19:29.415Z,29.05
2022-10-18T12:22:04.254Z,29.25
2022-10-18T12:24:33.735Z,29.33
2022-10-18T12:27:04.973Z,29.23
2022-10-18T12:29:42.085Z,29.25
2022-10-18T12:32:14.818Z,28.97
2022-10-18T12:34:47.048Z,28.72
2022-10-18T12:37:35.783Z,28.55
2022-10-18T12:40:11.444Z,28.50
2022-10-18T12:42:45.192Z,28.54
2022-10-18T12:45:25.308Z,28.74
2022-10-18T12:47:54.695Z,28.98
2022-10-18T12:50:31.673Z,29.14
2022-10-18T12:53:17.402Z,29.27
2022-10-18T12:55:47.679Z,29.24
2022-10-18T12:58:32.757Z,28.80
2022-10-18T13:01:03.839Z,28.28
2022-10-18T13:03:55.240Z,27.89
2022-10-18T13:06:25.491Z,27.47
2022-10-18T13:09:20.315Z,27.35
2022-10-18T13:11:49.679Z,27.06
2022-10-18T13:14:59.356Z,27.03
2022-10-18T13:17:45.674Z,26.76
2022-10-18T13:20:26.464Z,26.55
2022-10-18T13:25:55.264Z,26.26
2022-10-18T13:28:30.519Z,26.66
2022-10-18T13:31:11.203Z,26.78
2022-10-18T13:33:42.058Z,27.25
2022-10-18T13:36:23.667Z,27.60
2022-10-18T13:39:03.788Z,27.71
2022-10-18T13:41:35.490Z,27.72
2022-10-18T13:44:28.756Z,27.83
2022-10-18T13:47:38.896Z,27.98
2022-10-18T13:50:42.253Z,27.90
2022-10-18T13:53:35.847Z,28.15
2022-10-18T13:56:24.301Z,27.96
2022-10-18T13:59:14.294Z,27.92
2022-10-18T14:01:57.939Z,27.89
2022-10-18T14:04:48.282Z,27.97
2022-10-18T14:07:19.435Z,27.67
2022-10-18T14:09:55.498Z,27.39
2022-10-18T14:12:32.063Z,27.06
2022-10-18T14:15:06.883Z,26.73
2022-10-18T14:17:41.005Z,26.61
2022-10-18T14:20:29.536Z,26.45
2022-10-18T14:23:03.916Z,26.24
2022-10-18T14:25:35.992Z,26.04
2022-10-18T14:28:12.233Z,25.83
2022-10-18T14:30:59.808Z,25.65
2022-10-18T14:33:31.427Z,25.70
2022-10-18T14:36:08.163Z,26.04
2022-10-18T14:38:47.837Z,26.12
2022-10-18T14:41:21.591Z,26.14
2022-10-18T14:43:50.551Z,26.25
2022-10-18T14:46:24.327Z,26.44
2022-10-18T14:48:54.731Z,26.59
2022-10-18T14:51:25.468Z,26.65
2022-10-18T14:53:54.683Z,26.73
2022-10-18T14:56:28.092Z,26.75
2022-10-18T14:58:58.155Z,26.80
2022-10-18T15:01:30.947Z,26.59
2022-10-18T15:04:01.218Z,26.14
2022-10-18T15:06:33.720Z,25.97
2022-10-18T15:09:04.731Z,25.97
2022-10-18T15:11:34.269Z,25.77
2022-10-18T15:14:06.742Z,25.74
2022-10-18T15:16:38.765Z,25.75
2022-10-18T15:19:09.343Z,25.63
2022-10-18T15:21:39.825Z,25.54
2022-10-18T15:24:30.781Z,25.46
2022-10-18T15:27:04.248Z,25.17
2022-10-18T15:29:36.150Z,24.89
2022-10-18T15:32:14.853Z,24.62
2022-10-18T15:34:43.457Z,24.38
2022-10-18T15:37:33.345Z,24.17
2022-10-18T15:40:31.749Z,23.98
2022-10-18T15:43:02.482Z,23.73
2022-10-18T15:45:34.069Z,23.58
2022-10-18T15:48:18.583Z,23.51
2022-10-18T15:50:48.834Z,23.40
2022-10-18T15:53:33.793Z,23.35
2022-10-18T15:56:05.943Z,23.20
2022-10-18T15:58:44.306Z,23.09
2022-10-18T16:01:18.113Z,23.02
2022-10-18T16:03:48.481Z,22.92
2022-10-18T16:06:18.499Z,22.79
2022-10-18T16:08:51.974Z,22.68
2022-10-18T16:11:22.062Z,22.57
2022-10-18T16:13:54.022Z,22.50
2022-10-18T16:16:27.019Z,22.38
2022-10-18T16:18:56.937Z,22.37
2022-10-18T16:21:27.396Z,22.19
2022-10-18T16:23:57.921Z,22.15
2022-10-18T16:26:27.055Z,22.06
2022-10-18T16:28:57.178Z,21.96
2022-10-18T16:31:28.301Z,21.91
2022-10-18T16:33:58.592Z,21.87
2022-10-18T16:36:29.990Z,21.83
2022-10-18T16:39:03.845Z,21.78
2022-10-18T16:41:32.618Z,21.74
2022-10-18T16:44:01.000Z,21.73
2022-10-18T16:46:33.927Z,21.60
2022-10-18T16:49:03.247Z,21.52
2022-10-18T16:51:32.139Z,21.50
2022-10-18T16:54:01.977Z,21.43
2022-10-18T16:56:33.087Z,21.39
2022-10-18T16:59:01.774Z,21.36
2022-10-18T17:01:30.813Z,21.33
2022-10-18T17:03:59.392Z,21.27
2022-10-18T17:06:30.535Z,21.25
2022-10-18T17:08:59.676Z,21.18
2022-10-18T17:11:30.274Z,21.11
2022-10-18T17:13:58.634Z,21.09
2022-10-18T17:16:30.147Z,21.07
2022-10-18T17:19:01.365Z,21.00
2022-10-18T17:21:33.742Z,20.99
2022-10-18T17:24:03.205Z,20.98
2022-10-18T17:26:33.650Z,20.93
2022-10-18T17:29:04.965Z,20.96
2022-10-18T17:31:35.901Z,20.91
2022-10-18T17:34:04.784Z,20.89
2022-10-18T17:36:34.372Z,20.84
2022-10-18T17:39:03.128Z,20.72
2022-10-18T17:41:33.498Z,20.72
2022-10-18T17:44:03.459Z,20.63
2022-10-18T17:46:32.917Z,20.55
2022-10-18T17:49:01.330Z,20.51
2022-10-18T17:51:30.201Z,20.46
2022-10-18T17:53:58.607Z,20.41
2022-10-18T17:56:31.416Z,20.32
2022-10-18T17:59:01.200Z,20.27
2022-10-18T18:01:30.284Z,20.24
2022-10-18T18:03:59.746Z,20.19
2022-10-18T18:06:31.935Z,20.17
2022-10-18T18:09:02.295Z,20.16
2022-10-18T18:11:31.969Z,20.04
2022-10-18T18:14:01.796Z,20.02
2022-10-18T18:16:31.638Z,19.97
2022-10-18T18:19:00.093Z,19.88
2022-10-18T18:21:29.303Z,19.80
2022-10-18T18:23:57.820Z,19.74
2022-10-18T18:26:26.432Z,19.73
2022-10-18T18:28:55.430Z,19.74
2022-10-18T18:31:29.441Z,19.72
2022-10-18T18:34:01.557Z,19.70
2022-10-18T18:36:30.058Z,19.68
2022-10-18T18:38:59.211Z,19.59
2022-10-18T18:41:28.721Z,19.53
2022-10-18T18:43:59.214Z,19.44
2022-10-18T18:46:32.931Z,19.40
2022-10-18T18:49:02.447Z,19.37
2022-10-18T18:51:32.095Z,19.37
2022-10-18T18:54:01.695Z,19.35
2022-10-18T18:56:30.057Z,19.35
2022-10-18T18:59:00.593Z,19.33
2022-10-18T19:01:32.388Z,19.34
2022-10-18T19:04:01.683Z,19.29
2022-10-18T19:06:31.804Z,19.29
2022-10-18T19:09:04.038Z,19.22
2022-10-18T19:11:34.485Z,19.13
2022-10-18T19:14:04.835Z,19.09
2022-10-18T19:16:35.766Z,19.07
2022-10-18T19:19:07.133Z,19.02
2022-10-18T19:21:37.265Z,19.01
2022-10-18T19:24:07.811Z,19.02
2022-10-18T19:26:37.914Z,19.02
2022-10-18T19:29:09.927Z,18.97
2022-10-18T19:31:39.818Z,18.91
2022-10-18T19:34:10.711Z,18.89
2022-10-18T19:36:40.730Z,18.89
2022-10-18T19:39:13.107Z,18.88
2022-10-18T19:41:41.438Z,18.82
2022-10-18T19:44:09.988Z,18.75
2022-10-18T19:46:40.023Z,18.72
2022-10-18T19:49:08.942Z,18.69
2022-10-18T19:51:37.681Z,18.67
2022-10-18T19:54:06.903Z,18.68
2022-10-18T19:56:35.259Z,18.68
2022-10-18T19:59:03.800Z,18.70
2022-10-18T20:01:32.382Z,18.70
2022-10-18T20:04:03.730Z,18.74
2022-10-18T20:06:33.460Z,18.77
2022-10-18T20:09:01.979Z,18.77
2022-10-18T20:11:31.187Z,18.69
2022-10-18T20:14:00.874Z,18.70
2022-10-18T20:16:31.067Z,18.66
2022-10-18T20:19:02.861Z,18.65
2022-10-18T20:21:35.388Z,18.66
2022-10-18T20:24:05.251Z,18.68
2022-10-18T20:26:35.737Z,18.70
2022-10-18T20:29:05.337Z,18.68
2022-10-18T20:31:38.653Z,18.68
2022-10-18T20:34:12.099Z,18.67
2022-10-18T20:36:40.900Z,18.69
2022-10-18T20:39:10.075Z,18.67
2022-10-18T20:41:41.422Z,18.68
2022-10-18T20:44:13.988Z,18.68
2022-10-18T20:46:44.394Z,18.60
2022-10-18T20:49:16.807Z,18.61
2022-10-18T20:51:46.221Z,18.54
2022-10-18T20:54:14.613Z,18.51
2022-10-18T20:56:43.864Z,18.48
2022-10-18T20:59:12.236Z,18.47
2022-10-18T21:01:41.203Z,18.48
2022-10-18T21:04:11.247Z,18.40
2022-10-18T21:06:43.126Z,18.25
2022-10-18T21:09:13.499Z,18.18
2022-10-18T21:11:45.308Z,18.12
2022-10-18T21:14:16.029Z,18.08
2022-10-18T21:16:45.796Z,18.05
2022-10-18T21:19:16.142Z,18.01
2022-10-18T21:21:49.921Z,17.94
2022-10-18T21:24:19.398Z,17.91
2022-10-18T21:26:48.920Z,17.90
2022-10-18T21:29:21.923Z,17.84
2022-10-18T21:31:53.933Z,17.86
2022-10-18T21:34:22.961Z,17.86
2022-10-18T21:36:53.036Z,17.89
2022-10-18T21:41:57.698Z,17.74
2022-10-18T21:44:26.032Z,17.65
2022-10-18T21:46:55.334Z,17.61
2022-10-18T21:49:25.051Z,17.51
2022-10-18T21:51:55.522Z,17.49
2022-10-18T21:54:23.936Z,17.48
2022-10-18T21:56:52.657Z,17.48
2022-10-18T21:59:21.188Z,17.47
2022-10-18T22:01:50.262Z,17.49
2022-10-18T22:04:20.779Z,17.52
2022-10-18T22:06:50.657Z,17.52
2022-10-18T22:09:22.136Z,17.54
2022-10-18T22:11:53.318Z,17.56
2022-10-18T22:14:21.842Z,17.55
2022-10-18T22:16:51.215Z,17.53
2022-10-18T22:19:19.675Z,17.56
2022-10-18T22:21:48.591Z,17.55
2022-10-18T22:24:16.998Z,17.48
2022-10-18T22:26:48.375Z,17.47
2022-10-18T22:29:18.981Z,17.40
2022-10-18T22:31:50.016Z,17.33
2022-10-18T22:34:20.175Z,17.26
2022-10-18T22:36:49.341Z,17.23
2022-10-18T22:39:18.399Z,17.15
2022-10-18T22:41:52.590Z,17.13
2022-10-18T22:44:21.481Z,17.02
2022-10-18T22:46:49.893Z,17.04
2022-10-18T22:49:19.022Z,17.04
2022-10-18T22:51:47.760Z,17.02
2022-10-18T22:54:16.554Z,16.99
2022-10-18T22:56:45.486Z,16.92
2022-10-18T22:59:15.206Z,16.92
2022-10-18T23:01:44.342Z,16.88
2022-10-18T23:04:13.175Z,16.87
2022-10-18T23:06:41.945Z,16.81
2022-10-18T23:09:12.334Z,16.79
2022-10-18T23:11:41.326Z,16.76
2022-10-18T23:14:09.754Z,16.73
2022-10-18T23:16:40.351Z,16.70
2022-10-18T23:19:08.762Z,16.63
2022-10-18T23:21:37.086Z,16.51
2022-10-18T23:24:05.920Z,16.50
2022-10-18T23:26:34.440Z,16.53
2022-10-18T23:29:03.372Z,16.55
2022-10-18T23:31:34.038Z,16.61
2022-10-18T23:34:06.701Z,16.63
2022-10-18T23:36:35.475Z,16.57
2022-10-18T23:39:06.522Z,16.62
2022-10-18T23:41:35.221Z,16.62
2022-10-18T23:44:04.837Z,16.64
2022-10-18T23:46:33.592Z,16.64
2022-10-18T23:49:01.968Z,16.69
2022-10-18T23:51:32.062Z,16.74
2022-10-18T23:54:00.807Z,16.71
2022-10-18T23:56:29.162Z,16.73
2022-10-18T23:58:58.491Z,16.73
